Terminal Aerodrome Forecast
Issued by NWS

Home | Current Version | Previous Version | Text Only | Print | Product List | Glossary Off
Versions: 1 2 3 4 5 6 7 8 9 10 11 12 13 14 15 16 17

000
FTUS43 KGRB 241700
TAFAUW
TAF
KAUW 241736Z 2418/2518 22005KT P6SM OVC050
     FM250500 16006KT P6SM SCT060 BKN100
     FM251200 18010KT P6SM SCT040 BKN090 PROB30 2514/2518 5SM -SHRA
      OVC040=

USA.gov is the U.S. government's official web portal to all federal, state and local government web resources and services.